Time;durP1;ratioP1;P1;durP2;ratioP2;P2;SDS_P1;SDS_P2;PMS_P1;PMS_P2;Temp;Humidity;BMP_temperature;BMP_pressure;BME280_temperature;BME280_humidity;BME280_pressure;Samples;Min_cycle;Max_cycle;Signal;HPM_P1;HPM_P2
2021/08/27 00:01:38;;;;;;;2.15;0.20;;;;;;;14.38;70.34;100082.22;4920093;28;98967;-62
2021/08/27 00:04:04;;;;;;;2.30;0.20;;;;;;;14.39;70.48;100079.22;4920425;28;127918;-62
2021/08/27 00:06:30;;;;;;;1.67;0.20;;;;;;;14.40;70.36;100085.44;4903330;28;127549;-62
2021/08/27 00:08:58;;;;;;;1.20;0.20;;;;;;;14.39;70.24;100086.56;4889868;28;98301;-68
2021/08/27 00:11:25;;;;;;;1.45;0.30;;;;;;;14.38;70.67;100083.03;4903071;28;98442;-62
2021/08/27 00:13:51;;;;;;;1.30;0.20;;;;;;;14.36;70.72;100085.25;4903037;28;103238;-61
2021/08/27 00:16:17;;;;;;;2.08;0.30;;;;;;;14.37;70.88;100094.97;4902179;28;127697;-68
2021/08/27 00:18:43;;;;;;;1.83;0.30;;;;;;;14.37;70.54;100080.63;4903279;28;117778;-61
2021/08/27 00:21:09;;;;;;;1.80;0.40;;;;;;;14.36;70.68;100090.66;4919577;28;127211;-68
2021/08/27 00:23:35;;;;;;;0.90;0.20;;;;;;;14.36;70.68;100092.56;4922577;28;128003;-62
2021/08/27 00:26:01;;;;;;;1.98;0.32;;;;;;;14.37;71.09;100088.75;4922654;28;98481;-68
2021/08/27 00:28:27;;;;;;;1.98;0.30;;;;;;;14.34;70.72;100087.44;4909945;28;116288;-68
2021/08/27 00:30:57;;;;;;;2.50;0.40;;;;;;;14.34;70.97;100082.00;4902689;28;126314;-69
2021/08/27 00:33:25;;;;;;;4.05;0.47;;;;;;;14.35;70.91;100085.56;4912002;28;98759;-62
2021/08/27 00:35:51;;;;;;;1.10;0.20;;;;;;;14.35;70.71;100075.50;4922495;28;112338;-61
2021/08/27 00:38:17;;;;;;;2.35;0.30;;;;;;;14.35;70.79;100083.63;4922303;28;116769;-69
2021/08/27 00:40:43;;;;;;;1.10;0.30;;;;;;;14.36;70.94;100087.16;4893479;28;104458;-61
2021/08/27 00:43:13;;;;;;;1.77;0.35;;;;;;;14.36;71.01;100077.09;4918342;28;98534;-61
2021/08/27 00:45:46;;;;;;;1.20;0.20;;;;;;;14.35;70.98;100097.19;4911290;28;98201;-62
2021/08/27 00:48:13;;;;;;;2.35;0.40;;;;;;;14.35;70.39;100080.13;4922598;28;98119;-69
2021/08/27 00:50:39;;;;;;;1.55;0.30;;;;;;;14.34;70.65;100081.22;4908971;28;128321;-61
2021/08/27 00:53:07;;;;;;;3.35;0.40;;;;;;;14.31;71.02;100088.06;4903487;28;98833;-68
2021/08/27 00:55:33;;;;;;;1.58;0.30;;;;;;;14.29;70.31;100078.59;4903109;28;98104;-69
2021/08/27 00:57:59;;;;;;;2.00;0.30;;;;;;;14.26;70.97;100090.84;4909535;28;116687;-69
2021/08/27 01:00:25;;;;;;;1.98;0.30;;;;;;;14.23;71.02;100086.06;4916597;28;127362;-62
2021/08/27 01:02:54;;;;;;;2.28;0.50;;;;;;;14.19;70.82;100087.75;4902594;28;98318;-63
2021/08/27 01:05:20;;;;;;;1.45;0.35;;;;;;;14.20;71.31;100086.66;4908027;28;98484;-61
2021/08/27 01:07:54;;;;;;;2.85;0.68;;;;;;;14.12;70.77;100088.16;4919106;28;111280;-69
2021/08/27 01:10:31;;;;;;;3.65;0.50;;;;;;;14.13;71.08;100094.38;4920617;28;98823;-62
2021/08/27 01:13:11;;;;;;;2.55;0.50;;;;;;;14.12;71.44;100096.28;4921179;28;98680;-62
2021/08/27 01:16:02;;;;;;;1.33;0.40;;;;;;;14.09;71.30;100094.16;4920070;28;101683;-62
2021/08/27 01:18:54;;;;;;;2.67;0.38;;;;;;;14.08;71.01;100095.28;4922192;28;98108;-62
2021/08/27 01:21:36;;;;;;;2.55;0.47;;;;;;;14.07;71.21;100093.66;4919571;28;117187;-62
2021/08/27 01:24:05;;;;;;;1.20;0.40;;;;;;;14.08;71.52;100094.47;4904876;28;120479;-68
2021/08/27 01:26:46;;;;;;;1.30;0.38;;;;;;;14.07;71.47;100093.66;4904968;28;98357;-69
2021/08/27 01:29:12;;;;;;;1.33;0.35;;;;;;;14.09;71.96;100094.16;4877009;28;98340;-69
2021/08/27 01:31:54;;;;;;;1.58;0.50;;;;;;;14.05;71.38;100089.63;4885069;28;98773;-62
2021/08/27 01:34:39;;;;;;;2.93;0.50;;;;;;;14.04;71.40;100091.53;4900725;28;98267;-62
2021/08/27 01:37:12;;;;;;;1.65;0.40;;;;;;;14.04;71.71;100088.84;4917540;28;98047;-62
2021/08/27 01:39:40;;;;;;;2.30;0.47;;;;;;;14.03;72.04;100095.38;4900017;28;98189;-69
2021/08/27 01:42:08;;;;;;;1.90;0.30;;;;;;;14.03;72.13;100086.41;4899853;28;116181;-62
2021/08/27 01:44:34;;;;;;;2.25;0.47;;;;;;;14.03;71.51;100094.53;4903377;28;98246;-68
2021/08/27 01:47:01;;;;;;;3.33;0.60;;;;;;;14.03;72.22;100098.06;4899891;28;97834;-62
2021/08/27 01:49:29;;;;;;;2.08;0.40;;;;;;;14.03;71.58;100102.66;4906664;28;97986;-62
2021/08/27 01:51:57;;;;;;;1.55;0.47;;;;;;;14.02;71.77;100092.94;4902640;28;116124;-68
2021/08/27 01:54:23;;;;;;;3.22;0.60;;;;;;;14.03;72.50;100097.25;4903475;28;98997;-68
2021/08/27 01:56:49;;;;;;;1.20;0.60;;;;;;;14.04;72.13;100096.16;4874092;28;126068;-68
2021/08/27 01:59:16;;;;;;;2.22;0.60;;;;;;;14.03;72.29;100103.50;4900152;28;118977;-61
2021/08/27 02:01:42;;;;;;;1.88;0.70;;;;;;;14.02;72.56;100101.06;4883852;28;116370;-61
2021/08/27 02:04:14;;;;;;;3.55;1.05;;;;;;;14.00;72.02;100093.25;4900655;28;99367;-61
2021/08/27 02:06:40;;;;;;;2.60;0.93;;;;;;;13.97;72.35;100089.22;4899875;28;98275;-62
2021/08/27 02:09:06;;;;;;;3.67;1.40;;;;;;;13.96;72.62;100095.75;4891206;28;97951;-68
2021/08/27 02:11:33;;;;;;;3.22;1.33;;;;;;;13.95;72.79;100102.28;4916886;28;107550;-62
2021/08/27 02:14:00;;;;;;;2.92;1.45;;;;;;;13.94;72.86;100097.94;4902206;28;114740;-69
2021/08/27 02:16:26;;;;;;;2.65;1.67;;;;;;;13.95;72.54;100098.75;4918063;28;128150;-62
2021/08/27 02:18:52;;;;;;;2.90;1.90;;;;;;;13.94;72.95;100091.72;4921135;28;106412;-69
2021/08/27 02:21:18;;;;;;;4.15;2.20;;;;;;;13.93;72.82;100100.97;4897681;28;127530;-62
2021/08/27 02:23:44;;;;;;;4.47;2.22;;;;;;;13.92;72.76;100102.88;4883608;28;113462;-69
2021/08/27 02:26:13;;;;;;;3.92;2.33;;;;;;;13.89;72.66;100092.63;4904241;28;108967;-69
2021/08/27 02:28:40;;;;;;;4.07;2.40;;;;;;;13.91;73.11;100098.56;4914168;28;97883;-69
2021/08/27 02:31:06;;;;;;;4.13;2.10;;;;;;;13.92;73.03;100094.75;4918835;28;98414;-62
2021/08/27 02:33:32;;;;;;;3.65;2.15;;;;;;;13.92;72.92;100094.75;4919154;28;98901;-68
2021/08/27 02:35:58;;;;;;;3.95;2.38;;;;;;;13.91;72.91;100087.72;4891661;28;127576;-69
2021/08/27 02:38:24;;;;;;;4.88;2.10;;;;;;;13.91;72.82;100095.03;4884284;28;117846;-69
2021/08/27 02:40:50;;;;;;;3.60;1.95;;;;;;;13.92;73.13;100100.16;4917997;28;113826;-69
2021/08/27 02:43:16;;;;;;;3.60;2.30;;;;;;;13.91;72.73;100097.72;4918298;28;126873;-69
2021/08/27 02:45:42;;;;;;;4.07;1.83;;;;;;;13.89;72.67;100097.25;4920298;28;125987;-68
2021/08/27 02:48:08;;;;;;;3.50;1.92;;;;;;;13.87;72.83;100099.44;4920803;28;97828;-68
2021/08/27 02:51:04;;;;;;;2.97;1.73;;;;;;;13.83;72.71;100095.72;4919589;28;128021;-62
2021/08/27 02:53:32;;;;;;;2.45;1.70;;;;;;;13.85;73.26;100094.31;4888793;28;116692;-69
2021/08/27 02:56:26;;;;;;;3.53;1.85;;;;;;;13.82;72.43;100091.41;4898761;28;127478;-68
2021/08/27 02:58:54;;;;;;;2.60;1.63;;;;;;;13.83;73.38;100090.28;4897011;28;99173;-68
2021/08/27 03:01:37;;;;;;;2.88;1.70;;;;;;;13.83;73.37;100090.28;4898747;28;99216;-62
2021/08/27 03:04:24;;;;;;;;;;;;;;;13.74;72.75;100088.25;4915370;28;98713;-62
2021/08/27 03:07:00;;;;;;;3.05;1.80;;;;;;;13.78;73.04;100096.59;4910880;28;98041;-62
2021/08/27 03:09:26;;;;;;;2.70;1.63;;;;;;;13.76;73.35;100090.69;4901212;28;97926;-62
2021/08/27 03:11:58;;;;;;;2.65;1.80;;;;;;;13.78;73.52;100093.09;4898353;28;128744;-62
2021/08/27 03:14:38;;;;;;;4.55;2.55;;;;;;;13.75;72.73;100087.19;4883707;28;98721;-62
2021/08/27 03:17:09;;;;;;;2.95;1.80;;;;;;;13.75;73.53;100087.19;4898345;28;112358;-62
2021/08/27 03:19:57;;;;;;;4.38;1.50;;;;;;;13.77;73.37;100091.50;4886058;28;97831;-62
2021/08/27 03:22:55;;;;;;;3.75;1.60;;;;;;;13.77;73.48;100094.19;4885350;28;98625;-69
2021/08/27 03:25:22;;;;;;;3.17;1.88;;;;;;;13.79;73.60;100094.69;4885927;28;104771;-69
2021/08/27 03:27:53;;;;;;;6.00;2.30;;;;;;;13.79;73.21;100094.69;4883528;28;99126;-69
2021/08/27 03:30:24;;;;;;;5.67;1.90;;;;;;;13.78;73.29;100098.50;4898217;28;100348;-69
2021/08/27 03:33:00;;;;;;;3.00;2.00;;;;;;;13.76;73.11;100098.81;4900229;28;106630;-62
2021/08/27 03:35:26;;;;;;;4.20;2.20;;;;;;;13.79;73.36;100098.19;4906782;28;98496;-63
2021/08/27 03:37:53;;;;;;;4.72;2.72;;;;;;;13.80;73.43;100093.63;4917613;28;127627;-62
2021/08/27 03:40:19;;;;;;;3.22;2.22;;;;;;;13.79;73.48;100097.41;4918445;28;98120;-62
2021/08/27 03:42:46;;;;;;;5.18;2.30;;;;;;;13.78;73.41;100093.09;4918666;28;118091;-62
2021/08/27 03:45:12;;;;;;;4.72;2.80;;;;;;;13.77;73.28;100094.19;4921102;28;98237;-62
2021/08/27 03:47:40;;;;;;;3.38;2.25;;;;;;;13.75;73.38;100083.66;4921543;28;126193;-62
2021/08/27 03:50:08;;;;;;;3.53;2.08;;;;;;;13.74;73.50;100087.47;4905910;28;98460;-69
2021/08/27 03:52:34;;;;;;;2.60;2.05;;;;;;;13.74;73.30;100084.75;4901978;28;115848;-68
2021/08/27 03:55:01;;;;;;;2.55;1.90;;;;;;;13.73;73.42;100086.66;4907451;28;126003;-69
2021/08/27 03:57:27;;;;;;;4.32;2.30;;;;;;;13.72;73.27;100085.06;4920169;28;98381;-62
2021/08/27 03:59:53;;;;;;;3.13;2.35;;;;;;;13.73;73.68;100083.16;4918545;28;119244;-62
2021/08/27 04:02:19;;;;;;;3.95;2.75;;;;;;;13.73;73.61;100078.53;4902128;28;128853;-62
2021/08/27 04:04:45;;;;;;;3.95;2.53;;;;;;;13.73;73.50;100078.53;4885269;28;110733;-62
2021/08/27 04:07:11;;;;;;;3.65;2.35;;;;;;;13.73;73.78;100078.53;4904329;28;98251;-69
2021/08/27 04:09:37;;;;;;;6.10;2.65;;;;;;;13.74;73.64;100077.44;4901821;28;117970;-62
2021/08/27 04:12:05;;;;;;;4.28;2.45;;;;;;;13.73;73.31;100075.84;4902529;28;129234;-63
2021/08/27 04:14:31;;;;;;;3.72;2.95;;;;;;;13.75;73.44;100076.34;4903434;28;98672;-62
2021/08/27 04:17:02;;;;;;;4.60;2.72;;;;;;;13.76;73.45;100082.56;4911915;28;114722;-62
2021/08/27 04:19:28;;;;;;;5.03;3.30;;;;;;;13.77;73.24;100080.66;4916919;28;97707;-62
2021/08/27 04:21:54;;;;;;;5.03;2.83;;;;;;;13.76;73.53;100082.56;4902165;28;126783;-69
2021/08/27 04:24:20;;;;;;;4.80;2.92;;;;;;;13.76;73.76;100090.69;4900683;28;126877;-62
2021/08/27 04:26:46;;;;;;;4.43;3.20;;;;;;;13.75;73.93;100084.47;4904573;28;98561;-69
2021/08/27 04:29:13;;;;;;;5.00;3.28;;;;;;;13.79;73.49;100083.84;4911321;28;117430;-69
2021/08/27 04:31:40;;;;;;;4.65;2.80;;;;;;;13.79;73.75;100092.78;4902870;28;98339;-62
2021/08/27 04:34:06;;;;;;;4.43;3.53;;;;;;;13.84;73.46;100090.00;4903187;28;99093;-62
2021/08/27 04:36:32;;;;;;;4.13;3.60;;;;;;;13.91;72.90;100089.59;4900772;28;127666;-69
2021/08/27 04:38:58;;;;;;;6.45;3.40;;;;;;;13.98;73.38;100088.13;4882343;28;109792;-69
2021/08/27 04:41:24;;;;;;;4.07;3.20;;;;;;;14.04;72.93;100090.75;4898589;28;127032;-68
2021/08/27 04:43:50;;;;;;;3.88;3.45;;;;;;;14.10;72.97;100089.53;4898820;28;126823;-61
2021/08/27 04:46:17;;;;;;;3.80;3.38;;;;;;;14.17;72.99;100085.31;4905338;28;98427;-62
2021/08/27 04:48:43;;;;;;;4.78;3.40;;;;;;;14.21;73.02;100093.66;4900618;28;97982;-69
2021/08/27 04:51:09;;;;;;;4.05;3.60;;;;;;;14.23;72.51;100086.06;4905055;28;100927;-62
2021/08/27 04:53:35;;;;;;;3.60;3.30;;;;;;;14.24;72.46;100088.44;4899489;28;98282;-69
2021/08/27 04:56:01;;;;;;;5.22;3.13;;;;;;;14.27;72.46;100095.19;4899033;28;127554;-69
2021/08/27 04:58:27;;;;;;;5.30;3.30;;;;;;;14.31;72.44;100092.69;4899602;28;101684;-62
2021/08/27 05:00:54;;;;;;;3.95;3.25;;;;;;;14.33;72.56;100095.88;4902717;28;128038;-69
2021/08/27 05:03:20;;;;;;;9.55;3.30;;;;;;;14.34;72.32;100089.34;4898341;28;124675;-68
2021/08/27 05:05:46;;;;;;;3.92;3.10;;;;;;;14.38;71.94;100095.78;4897749;28;125560;-62
2021/08/27 05:08:12;;;;;;;5.38;2.88;;;;;;;14.39;72.18;100094.69;4899415;28;101107;-62
2021/08/27 05:10:38;;;;;;;5.00;3.25;;;;;;;14.43;71.95;100090.28;4899884;28;127737;-62
2021/08/27 05:13:04;;;;;;;3.58;2.67;;;;;;;14.46;72.09;100095.91;4885374;28;127295;-69
2021/08/27 05:15:30;;;;;;;5.25;3.10;;;;;;;14.46;72.17;100098.59;4899064;28;120106;-69
2021/08/27 05:17:56;;;;;;;4.10;3.05;;;;;;;14.49;72.12;100097.22;4883722;28;115775;-69
2021/08/27 05:20:23;;;;;;;4.00;2.80;;;;;;;14.50;71.85;100096.09;4901968;28;128217;-68
2021/08/27 05:22:49;;;;;;;3.88;3.13;;;;;;;14.50;72.37;100098.81;4901350;28;98314;-68
2021/08/27 05:25:15;;;;;;;3.83;3.33;;;;;;;14.54;72.19;100096.31;4885187;28;99419;-69
2021/08/27 05:27:41;;;;;;;4.60;3.10;;;;;;;14.56;72.30;100088.69;4913632;28;117595;-69
2021/08/27 05:30:10;;;;;;;4.88;3.55;;;;;;;14.62;71.55;100087.44;4918381;28;126099;-62
2021/08/27 05:32:36;;;;;;;3.60;3.30;;;;;;;14.66;71.82;100091.19;4918397;28;115146;-61
2021/08/27 05:35:02;;;;;;;4.22;3.70;;;;;;;14.68;71.41;100092.47;4920466;28;115687;-62
2021/08/27 05:37:28;;;;;;;3.70;3.40;;;;;;;14.74;71.98;100087.75;4921781;28;98044;-61
2021/08/27 05:39:54;;;;;;;4.03;3.28;;;;;;;14.79;71.62;100084.13;4920099;28;128979;-69
2021/08/27 05:42:20;;;;;;;4.38;3.60;;;;;;;14.81;71.20;100090.84;4918901;28;127177;-61
2021/08/27 05:44:46;;;;;;;3.42;3.13;;;;;;;14.83;71.51;100085.13;4919166;28;127772;-61
2021/08/27 05:47:13;;;;;;;4.45;3.30;;;;;;;14.84;71.28;100090.25;4919363;28;118046;-67
2021/08/27 05:49:39;;;;;;;6.80;3.70;;;;;;;14.84;71.73;100082.09;4919737;28;98139;-61
2021/08/27 05:52:05;;;;;;;5.30;4.00;;;;;;;14.84;71.51;100086.72;4896955;28;97949;-62
2021/08/27 05:54:31;;;;;;;3.72;3.05;;;;;;;14.82;71.67;100092.47;4901993;28;115819;-62
2021/08/27 05:56:57;;;;;;;3.55;3.22;;;;;;;14.80;71.51;100089.25;4902656;28;97740;-68
2021/08/27 05:59:23;;;;;;;3.63;3.10;;;;;;;14.80;71.42;100089.25;4901136;28;127743;-62
2021/08/27 06:01:49;;;;;;;3.55;3.00;;;;;;;14.79;71.89;100089.56;4903212;28;98122;-61
2021/08/27 06:04:15;;;;;;;3.42;3.05;;;;;;;14.77;71.71;100089.84;4901834;28;113862;-68
2021/08/27 06:06:41;;;;;;;4.20;3.08;;;;;;;14.76;71.52;100088.25;4897557;28;97758;-61
2021/08/27 06:09:08;;;;;;;3.50;3.20;;;;;;;14.77;72.04;100087.13;4902188;28;98599;-69
2021/08/27 06:11:38;;;;;;;3.35;3.05;;;;;;;14.77;71.82;100092.56;4910139;28;99035;-62
2021/08/27 06:14:07;;;;;;;4.18;2.60;;;;;;;14.72;71.64;100090.75;4921909;28;97931;-62
2021/08/27 06:16:33;;;;;;;3.05;2.70;;;;;;;14.77;71.81;100106.13;4919094;28;117661;-68
2021/08/27 06:18:59;;;;;;;2.80;2.60;;;;;;;14.77;71.35;100100.69;4920631;28;116227;-61
2021/08/27 06:21:25;;;;;;;3.67;2.67;;;;;;;14.79;71.62;100100.41;4900822;28;97901;-69
2021/08/27 06:23:54;;;;;;;2.10;1.90;;;;;;;14.78;71.50;100096.91;4919372;28;126949;-61
2021/08/27 06:26:20;;;;;;;2.67;2.13;;;;;;;14.79;71.75;100095.78;4920117;28;97960;-61
2021/08/27 06:28:46;;;;;;;2.10;1.90;;;;;;;14.77;71.94;100095.28;4905925;28;98688;-68
2021/08/27 06:31:12;;;;;;;4.53;2.40;;;;;;;14.77;72.18;100106.13;4898705;28;127960;-61
2021/08/27 06:33:38;;;;;;;3.08;1.90;;;;;;;14.76;72.30;100104.53;4882510;28;127660;-61
2021/08/27 06:36:05;;;;;;;1.95;1.52;;;;;;;14.78;72.12;100104.25;4913064;28;117687;-61
2021/08/27 06:38:31;;;;;;;3.22;2.20;;;;;;;14.80;71.52;100094.66;4919865;28;127266;-68
2021/08/27 06:41:02;;;;;;;2.13;1.90;;;;;;;14.80;71.49;100097.38;4901907;28;121446;-61
2021/08/27 06:43:31;;;;;;;2.27;2.07;;;;;;;14.81;71.74;100096.28;4901936;28;98057;-68
2021/08/27 06:46:01;;;;;;;2.90;2.05;;;;;;;14.82;71.79;100094.38;4884863;28;97983;-62
2021/08/27 06:48:27;;;;;;;2.88;2.35;;;;;;;14.81;71.55;100098.19;4900870;28;98253;-68
2021/08/27 06:50:53;;;;;;;2.90;2.55;;;;;;;14.79;71.80;100095.78;4902210;28;99185;-68
2021/08/27 06:53:20;;;;;;;5.38;2.30;;;;;;;14.79;72.14;100109.34;4900588;28;127271;-68
2021/08/27 06:55:46;;;;;;;2.55;1.90;;;;;;;14.76;71.85;100099.09;4909652;28;110071;-61
2021/08/27 06:58:12;;;;;;;3.92;2.03;;;;;;;14.72;72.02;100101.63;4918161;28;98322;-61
2021/08/27 07:00:38;;;;;;;3.97;1.83;;;;;;;14.66;72.48;100102.84;4911726;28;117328;-68
2021/08/27 07:03:04;;;;;;;2.85;1.55;;;;;;;14.61;72.71;100102.13;4900946;28;98054;-61
2021/08/27 07:05:30;;;;;;;1.75;1.60;;;;;;;14.61;72.83;100102.13;4902227;28;97762;-62
2021/08/27 07:07:57;;;;;;;2.28;2.00;;;;;;;14.62;72.03;100098.31;4910315;28;107084;-69
2021/08/27 07:10:23;;;;;;;2.42;1.85;;;;;;;14.68;72.25;100108.75;4919912;28;99106;-68
2021/08/27 07:12:50;;;;;;;2.60;2.08;;;;;;;14.74;72.18;100112.19;4918395;28;98213;-69
2021/08/27 07:15:16;;;;;;;3.55;2.40;;;;;;;14.79;72.27;100108.56;4918903;28;98082;-68
2021/08/27 07:17:42;;;;;;;2.22;2.03;;;;;;;14.79;71.90;100111.25;4921986;28;115994;-61
2021/08/27 07:20:09;;;;;;;3.83;2.42;;;;;;;14.83;72.31;100104.13;4923357;28;100762;-68
2021/08/27 07:22:36;;;;;;;2.72;2.53;;;;;;;14.93;71.80;100106.59;4923610;28;97950;-61
2021/08/27 07:25:02;;;;;;;2.67;2.40;;;;;;;15.06;71.19;100103.06;4924664;28;97956;-69
2021/08/27 07:27:28;;;;;;;2.78;2.17;;;;;;;15.17;71.67;100109.88;4923444;28;98003;-68
2021/08/27 07:29:54;;;;;;;2.88;2.28;;;;;;;15.25;71.03;100102.09;4923404;28;115988;-69
2021/08/27 07:32:20;;;;;;;2.60;1.85;;;;;;;15.29;71.26;100108.50;4921642;28;103693;-69
2021/08/27 07:34:46;;;;;;;1.92;1.40;;;;;;;15.35;71.13;100113.53;4905289;28;101346;-61
2021/08/27 07:37:13;;;;;;;2.08;1.60;;;;;;;15.46;70.93;100112.19;4905290;28;100603;-61
2021/08/27 07:39:39;;;;;;;2.45;1.40;;;;;;;15.57;71.00;100109.22;4903578;28;127959;-69
2021/08/27 07:42:06;;;;;;;2.28;1.63;;;;;;;15.66;70.71;100105.47;4903260;28;127047;-61
2021/08/27 07:44:33;;;;;;;0.93;0.82;;;;;;;15.75;70.52;100108.25;4904616;28;97858;-62
2021/08/27 07:47:00;;;;;;;2.13;1.30;;;;;;;15.77;70.25;100107.94;4920334;28;126000;-62
2021/08/27 07:49:26;;;;;;;2.00;1.27;;;;;;;15.78;70.35;100104.91;4921730;28;99256;-69
2021/08/27 07:51:53;;;;;;;1.60;1.15;;;;;;;15.76;70.79;100111.75;4920322;28;126766;-61
2021/08/27 07:54:19;;;;;;;2.10;0.95;;;;;;;15.71;70.46;100110.78;4924177;28;98038;-62
2021/08/27 07:56:45;;;;;;;1.70;0.80;;;;;;;15.70;70.93;100108.38;4920252;28;114956;-61
2021/08/27 07:59:11;;;;;;;1.88;0.73;;;;;;;15.67;70.75;100117.94;4905306;28;100811;-68
2021/08/27 08:01:37;;;;;;;1.70;0.80;;;;;;;15.64;70.83;100106.84;4919140;28;108338;-68
2021/08/27 08:04:04;;;;;;;2.17;0.90;;;;;;;15.66;70.75;100110.91;4911790;28;104130;-69
2021/08/27 08:06:35;;;;;;;2.47;1.00;;;;;;;15.64;70.69;100110.41;4884873;28;100005;-68
2021/08/27 08:09:02;;;;;;;1.70;0.60;;;;;;;15.62;70.43;100101.75;4903550;28;97828;-69
2021/08/27 08:11:28;;;;;;;1.73;0.50;;;;;;;15.60;70.86;100114.84;4903522;28;108403;-61
2021/08/27 08:13:54;;;;;;;1.70;0.57;;;;;;;15.60;70.75;100114.03;4905344;28;98292;-62
2021/08/27 08:16:20;;;;;;;1.33;0.50;;;;;;;15.60;70.55;100114.03;4902570;28;125927;-61
2021/08/27 08:18:46;;;;;;;1.73;0.50;;;;;;;15.59;70.09;100113.22;4903601;28;127029;-68
2021/08/27 08:21:12;;;;;;;1.10;0.65;;;;;;;15.61;70.47;100110.22;4903457;28;127629;-69
2021/08/27 08:23:39;;;;;;;1.55;0.52;;;;;;;15.64;70.25;100113.13;4904064;28;97923;-68
2021/08/27 08:26:05;;;;;;;1.80;0.80;;;;;;;15.63;70.13;100114.22;4902582;28;126055;-61
2021/08/27 08:28:31;;;;;;;2.00;0.50;;;;;;;15.64;70.30;100112.28;4902207;28;111313;-62
2021/08/27 08:30:57;;;;;;;1.10;0.50;;;;;;;15.61;70.21;100112.94;4904282;28;126869;-68
2021/08/27 08:33:23;;;;;;;0.80;0.40;;;;;;;15.61;70.34;100129.22;4922875;28;98307;-62
2021/08/27 08:35:49;;;;;;;1.27;0.35;;;;;;;15.62;70.69;100123.47;4921132;28;98691;-68
2021/08/27 08:38:17;;;;;;;1.15;0.50;;;;;;;15.65;70.59;100114.75;4919904;28;128309;-62
2021/08/27 08:40:44;;;;;;;1.02;0.40;;;;;;;15.67;70.49;100126.09;4911703;28;97941;-61
2021/08/27 08:43:12;;;;;;;1.15;0.40;;;;;;;15.73;70.69;100115.91;4903356;28;98381;-69
2021/08/27 08:45:48;;;;;;;0.90;0.30;;;;;;;15.86;70.18;100122.38;4911670;28;98616;-68
2021/08/27 08:48:19;;;;;;;0.90;0.30;;;;;;;15.99;70.08;100120.69;4908139;28;98301;-61
2021/08/27 08:50:45;;;;;;;0.63;0.30;;;;;;;16.10;69.18;100128.25;4902893;28;98697;-61
2021/08/27 08:53:12;;;;;;;0.95;0.35;;;;;;;16.07;69.84;100118.03;4902916;28;98178;-69
2021/08/27 08:55:40;;;;;;;0.55;0.30;;;;;;;16.01;69.80;100127.44;4901586;28;117535;-68
2021/08/27 08:58:06;;;;;;;1.40;0.40;;;;;;;16.01;70.18;100123.91;4886003;28;98336;-62
2021/08/27 09:00:32;;;;;;;1.45;0.50;;;;;;;16.11;69.72;100126.34;4917718;28;99808;-68
2021/08/27 09:03:01;;;;;;;1.48;0.65;;;;;;;16.12;69.43;100125.25;4921532;28;115924;-68
2021/08/27 09:05:27;;;;;;;1.10;0.50;;;;;;;16.24;69.06;100127.38;4921974;28;115451;-69
2021/08/27 09:07:54;;;;;;;1.13;0.40;;;;;;;16.57;68.21;100125.91;4921512;28;126564;-69
2021/08/27 09:10:21;;;;;;;0.93;0.30;;;;;;;16.83;67.86;100119.78;4912850;28;98829;-62
2021/08/27 09:12:48;;;;;;;0.65;0.35;;;;;;;16.91;67.82;100127.16;4902905;28;97941;-69
2021/08/27 09:15:15;;;;;;;1.75;0.30;;;;;;;16.95;67.20;100132.75;4903033;28;98300;-62
2021/08/27 09:17:45;;;;;;;0.60;0.20;;;;;;;16.98;67.20;100126.66;4902243;28;98529;-61
2021/08/27 09:20:13;;;;;;;0.57;0.25;;;;;;;16.99;67.05;100120.91;4902222;28;97853;-69
2021/08/27 09:22:47;;;;;;;0.60;0.40;;;;;;;16.98;67.32;100123.94;4902314;28;108321;-63
2021/08/27 09:25:15;;;;;;;0.70;0.30;;;;;;;17.03;67.16;100127.31;4901739;28;98133;-69
2021/08/27 09:28:04;;;;;;;0.80;0.28;;;;;;;17.15;66.98;100121.25;4909722;28;98007;-68
2021/08/27 09:30:33;;;;;;;0.93;0.40;;;;;;;17.22;66.56;100120.78;4919910;28;97992;-68
2021/08/27 09:33:21;;;;;;;0.90;0.40;;;;;;;17.32;66.51;100126.69;4904046;28;97824;-62
2021/08/27 09:36:04;;;;;;;0.70;0.30;;;;;;;17.34;66.67;100120.94;4900946;28;100404;-62
2021/08/27 09:38:38;;;;;;;0.65;0.30;;;;;;;17.29;66.60;100127.34;4901244;28;98657;-68
2021/08/27 09:41:11;;;;;;;1.00;0.30;;;;;;;17.18;66.68;100121.41;4900115;28;97959;-68
2021/08/27 09:43:51;;;;;;;1.35;0.30;;;;;;;17.07;66.88;100132.94;4903283;28;97973;-68
2021/08/27 09:46:36;;;;;;;1.27;0.40;;;;;;;16.97;67.10;100125.88;4903011;28;98285;-69
2021/08/27 09:49:23;;;;;;;0.80;0.35;;;;;;;17.01;67.07;100132.28;4903079;28;98389;-69
2021/08/27 09:51:49;;;;;;;1.75;0.47;;;;;;;17.17;66.82;100132.63;4888292;28;98088;-61
2021/08/27 09:54:46;;;;;;;0.73;0.40;;;;;;;17.54;65.83;100119.50;4901911;28;118165;-62
2021/08/27 09:57:13;;;;;;;0.77;0.40;;;;;;;17.60;65.62;100129.88;4920197;28;98011;-69
2021/08/27 09:59:50;;;;;;;2.67;0.40;;;;;;;17.69;65.97;100131.81;4907537;28;98972;-68
2021/08/27 10:02:28;;;;;;;0.85;0.45;;;;;;;17.76;65.82;100129.41;4901925;28;97587;-62
2021/08/27 10:04:59;;;;;;;1.25;0.40;;;;;;;17.67;65.73;100132.13;4919835;28;102402;-62
2021/08/27 10:07:29;;;;;;;1.17;0.30;;;;;;;17.55;65.41;100119.16;4921233;28;98350;-69
2021/08/27 10:09:58;;;;;;;0.77;0.30;;;;;;;17.48;65.45;100126.22;4916179;28;99653;-62
2021/08/27 10:12:30;;;;;;;0.73;0.40;;;;;;;17.28;66.30;100135.84;4884928;28;97830;-62
2021/08/27 10:14:57;;;;;;;0.60;0.30;;;;;;;17.23;66.31;100127.81;4902041;28;108468;-62
2021/08/27 10:17:23;;;;;;;0.70;0.40;;;;;;;17.24;66.05;100132.94;4898922;28;116583;-69
2021/08/27 10:19:49;;;;;;;0.75;0.30;;;;;;;17.30;65.43;100131.69;4900757;28;128234;-62
2021/08/27 10:22:15;;;;;;;1.05;0.30;;;;;;;17.45;65.48;100124.13;4920187;28;114472;-69
2021/08/27 10:24:43;;;;;;;1.63;0.45;;;;;;;17.64;65.10;100121.88;4905775;28;108827;-62
2021/08/27 10:27:10;;;;;;;0.95;0.55;;;;;;;17.84;64.11;100115.78;4884947;28;98176;-68
2021/08/27 10:29:56;;;;;;;0.90;0.30;;;;;;;18.24;64.04;100118.25;4900722;28;98545;-69
2021/08/27 10:32:41;;;;;;;1.15;0.30;;;;;;;18.45;64.06;100121.03;4906528;28;116956;-69
2021/08/27 10:35:31;;;;;;;1.08;0.20;;;;;;;18.89;62.77;100114.22;4921735;28;99583;-62
2021/08/27 10:37:57;;;;;;;0.60;0.30;;;;;;;19.53;60.72;100112.28;4908407;28;98780;-62
2021/08/27 10:40:23;;;;;;;1.27;0.20;;;;;;;19.32;61.74;100109.59;4899114;28;127314;-62
2021/08/27 10:42:55;;;;;;;0.68;0.20;;;;;;;18.97;62.73;100109.84;4901839;28;98560;-62
2021/08/27 10:45:40;;;;;;;1.35;0.30;;;;;;;18.63;63.57;100119.81;4908309;28;97690;-62
2021/08/27 10:48:19;;;;;;;0.50;0.30;;;;;;;18.39;63.43;100116.88;4921123;28;98213;-69
2021/08/27 10:50:56;;;;;;;0.73;0.20;;;;;;;18.61;62.71;100107.63;4920365;28;97667;-69
2021/08/27 10:53:23;;;;;;;0.85;0.28;;;;;;;20.79;58.17;100105.25;4904652;28;98001;-62
2021/08/27 10:55:49;;;;;;;0.60;0.20;;;;;;;22.94;53.08;100114.50;4905668;28;97865;-69
2021/08/27 10:58:15;;;;;;;0.60;0.20;;;;;;;24.48;51.00;100114.69;4905599;28;98281;-70
2021/08/27 11:00:53;;;;;;;1.38;0.20;;;;;;;24.76;51.50;100121.81;4870823;28;98943;-63
2021/08/27 11:03:40;;;;;;;0.65;0.20;;;;;;;26.22;47.95;100120.03;4918143;28;97935;-63
2021/08/27 11:06:14;;;;;;;0.75;0.20;;;;;;;27.55;44.94;100117.72;4919004;28;97830;-63
2021/08/27 11:08:40;;;;;;;0.50;0.10;;;;;;;25.64;49.11;100111.16;4903425;28;98274;-70
2021/08/27 11:11:18;;;;;;;0.52;0.10;;;;;;;24.63;51.45;100113.75;4914811;28;127718;-65
2021/08/27 11:13:44;;;;;;;0.88;0.10;;;;;;;24.08;51.06;100104.97;4924345;28;98458;-63
2021/08/27 11:16:19;;;;;;;0.50;0.10;;;;;;;24.07;51.48;100108.88;4908978;28;116505;-70
2021/08/27 11:18:46;;;;;;;0.55;0.10;;;;;;;23.23;51.34;100117.88;4905002;28;98440;-69
2021/08/27 11:21:49;;;;;;;2.83;0.30;;;;;;;22.17;54.33;100108.72;4903344;28;112073;-62
2021/08/27 11:24:20;;;;;;;0.60;0.10;;;;;;;21.52;54.42;100100.72;4919708;28;98481;-68
2021/08/27 11:26:59;;;;;;;1.00;0.10;;;;;;;20.93;56.45;100101.31;4908213;28;98024;-68
2021/08/27 11:29:36;;;;;;;0.38;0.10;;;;;;;20.51;57.17;100102.38;4895230;28;98834;-68
2021/08/27 11:32:17;;;;;;;0.30;0.10;;;;;;;20.17;58.01;100100.06;4913330;28;98209;-62